sensor_id;sensor_type;location;lat;lon;timestamp;P1;durP1;ratioP1;P2;durP2;ratioP2
54735;SDS011;40632;51.442;11.936;2022-10-17T00:02:02;4.47;;;4.00;;
54735;SDS011;40632;51.442;11.936;2022-10-17T00:04:27;5.45;;;3.88;;
54735;SDS011;40632;51.442;11.936;2022-10-17T00:06:53;4.63;;;3.63;;
54735;SDS011;40632;51.442;11.936;2022-10-17T00:09:18;6.32;;;3.70;;
54735;SDS011;40632;51.442;11.936;2022-10-17T00:11:44;6.00;;;4.07;;
54735;SDS011;40632;51.442;11.936;2022-10-17T00:14:10;8.55;;;4.22;;
54735;SDS011;40632;51.442;11.936;2022-10-17T00:16:35;8.20;;;4.70;;
54735;SDS011;40632;51.442;11.936;2022-10-17T00:19:04;8.00;;;4.85;;
54735;SDS011;40632;51.442;11.936;2022-10-17T00:21:31;6.63;;;5.13;;
54735;SDS011;40632;51.442;11.936;2022-10-17T00:23:57;9.82;;;5.18;;
54735;SDS011;40632;51.442;11.936;2022-10-17T00:26:23;8.07;;;5.88;;
54735;SDS011;40632;51.442;11.936;2022-10-17T00:28:49;7.20;;;5.63;;
54735;SDS011;40632;51.442;11.936;2022-10-17T00:31:16;8.43;;;5.82;;
54735;SDS011;40632;51.442;11.936;2022-10-17T00:33:43;8.35;;;5.72;;
54735;SDS011;40632;51.442;11.936;2022-10-17T00:36:13;10.45;;;5.45;;
54735;SDS011;40632;51.442;11.936;2022-10-17T00:38:40;8.02;;;5.50;;
54735;SDS011;40632;51.442;11.936;2022-10-17T00:41:06;11.73;;;5.72;;
54735;SDS011;40632;51.442;11.936;2022-10-17T00:43:49;8.60;;;5.78;;
54735;SDS011;40632;51.442;11.936;2022-10-17T00:46:16;11.32;;;5.47;;
54735;SDS011;40632;51.442;11.936;2022-10-17T00:48:42;8.68;;;5.93;;
54735;SDS011;40632;51.442;11.936;2022-10-17T00:51:11;6.65;;;5.13;;
54735;SDS011;40632;51.442;11.936;2022-10-17T00:53:37;6.72;;;4.97;;
54735;SDS011;40632;51.442;11.936;2022-10-17T00:56:04;7.18;;;4.95;;
54735;SDS011;40632;51.442;11.936;2022-10-17T00:58:30;7.07;;;5.35;;
54735;SDS011;40632;51.442;11.936;2022-10-17T01:00:56;8.90;;;5.35;;
54735;SDS011;40632;51.442;11.936;2022-10-17T01:03:21;7.30;;;5.20;;
54735;SDS011;40632;51.442;11.936;2022-10-17T01:05:47;6.03;;;4.93;;
54735;SDS011;40632;51.442;11.936;2022-10-17T01:08:15;9.00;;;5.50;;
54735;SDS011;40632;51.442;11.936;2022-10-17T01:10:44;9.90;;;5.57;;
54735;SDS011;40632;51.442;11.936;2022-10-17T01:13:18;7.95;;;6.03;;
54735;SDS011;40632;51.442;11.936;2022-10-17T01:15:53;7.07;;;5.50;;
54735;SDS011;40632;51.442;11.936;2022-10-17T01:18:32;5.95;;;5.18;;
54735;SDS011;40632;51.442;11.936;2022-10-17T01:21:13;8.73;;;5.78;;
54735;SDS011;40632;51.442;11.936;2022-10-17T01:24:06;7.80;;;5.05;;
54735;SDS011;40632;51.442;11.936;2022-10-17T01:26:54;8.75;;;5.78;;
54735;SDS011;40632;51.442;11.936;2022-10-17T01:29:32;6.85;;;5.50;;
54735;SDS011;40632;51.442;11.936;2022-10-17T01:32:21;6.85;;;5.63;;
54735;SDS011;40632;51.442;11.936;2022-10-17T01:34:52;7.40;;;5.70;;
54735;SDS011;40632;51.442;11.936;2022-10-17T01:37:23;7.68;;;5.70;;
54735;SDS011;40632;51.442;11.936;2022-10-17T01:39:57;9.07;;;5.72;;
54735;SDS011;40632;51.442;11.936;2022-10-17T01:42:29;7.32;;;5.38;;
54735;SDS011;40632;51.442;11.936;2022-10-17T01:47:33;8.10;;;5.63;;
54735;SDS011;40632;51.442;11.936;2022-10-17T01:50:00;8.10;;;6.05;;
54735;SDS011;40632;51.442;11.936;2022-10-17T01:52:32;7.95;;;6.53;;
54735;SDS011;40632;51.442;11.936;2022-10-17T01:55:03;7.53;;;6.25;;
54735;SDS011;40632;51.442;11.936;2022-10-17T01:57:34;7.88;;;6.05;;
54735;SDS011;40632;51.442;11.936;2022-10-17T02:00:03;7.68;;;5.82;;
54735;SDS011;40632;51.442;11.936;2022-10-17T02:02:37;8.60;;;6.35;;
54735;SDS011;40632;51.442;11.936;2022-10-17T02:05:05;7.82;;;6.10;;
54735;SDS011;40632;51.442;11.936;2022-10-17T02:07:32;9.32;;;6.13;;
54735;SDS011;40632;51.442;11.936;2022-10-17T02:09:57;8.30;;;6.47;;
54735;SDS011;40632;51.442;11.936;2022-10-17T02:12:26;8.55;;;6.97;;
54735;SDS011;40632;51.442;11.936;2022-10-17T02:18:04;8.02;;;6.45;;
54735;SDS011;40632;51.442;11.936;2022-10-17T02:20:42;12.02;;;7.53;;
54735;SDS011;40632;51.442;11.936;2022-10-17T02:23:16;11.60;;;7.28;;
54735;SDS011;40632;51.442;11.936;2022-10-17T02:28:18;7.53;;;6.40;;
54735;SDS011;40632;51.442;11.936;2022-10-17T02:30:46;9.07;;;6.50;;
54735;SDS011;40632;51.442;11.936;2022-10-17T02:33:21;9.00;;;7.30;;
54735;SDS011;40632;51.442;11.936;2022-10-17T02:35:49;10.15;;;6.90;;
54735;SDS011;40632;51.442;11.936;2022-10-17T02:38:17;15.02;;;7.82;;
54735;SDS011;40632;51.442;11.936;2022-10-17T02:40:45;12.70;;;8.73;;
54735;SDS011;40632;51.442;11.936;2022-10-17T02:43:14;12.10;;;8.55;;
54735;SDS011;40632;51.442;11.936;2022-10-17T02:45:40;12.07;;;8.63;;
54735;SDS011;40632;51.442;11.936;2022-10-17T02:48:07;9.27;;;8.02;;
54735;SDS011;40632;51.442;11.936;2022-10-17T02:50:41;11.80;;;7.65;;
54735;SDS011;40632;51.442;11.936;2022-10-17T02:53:13;10.52;;;8.02;;
54735;SDS011;40632;51.442;11.936;2022-10-17T02:55:43;13.70;;;7.70;;
54735;SDS011;40632;51.442;11.936;2022-10-17T02:58:15;9.38;;;7.72;;
54735;SDS011;40632;51.442;11.936;2022-10-17T03:00:45;9.98;;;7.60;;
54735;SDS011;40632;51.442;11.936;2022-10-17T03:03:20;10.32;;;8.25;;
54735;SDS011;40632;51.442;11.936;2022-10-17T03:05:50;11.05;;;8.27;;
54735;SDS011;40632;51.442;11.936;2022-10-17T03:08:16;9.00;;;8.05;;
54735;SDS011;40632;51.442;11.936;2022-10-17T03:10:42;12.57;;;8.27;;
54735;SDS011;40632;51.442;11.936;2022-10-17T03:13:08;11.75;;;8.40;;
54735;SDS011;40632;51.442;11.936;2022-10-17T03:15:33;11.93;;;8.68;;
54735;SDS011;40632;51.442;11.936;2022-10-17T03:17:59;10.32;;;8.02;;
54735;SDS011;40632;51.442;11.936;2022-10-17T03:20:24;10.27;;;8.15;;
54735;SDS011;40632;51.442;11.936;2022-10-17T03:22:53;9.60;;;7.95;;
54735;SDS011;40632;51.442;11.936;2022-10-17T03:25:18;9.45;;;7.88;;
54735;SDS011;40632;51.442;11.936;2022-10-17T03:27:44;9.85;;;7.88;;
54735;SDS011;40632;51.442;11.936;2022-10-17T03:30:09;11.65;;;7.82;;
54735;SDS011;40632;51.442;11.936;2022-10-17T03:32:35;9.55;;;7.53;;
54735;SDS011;40632;51.442;11.936;2022-10-17T03:35:01;10.88;;;7.35;;
54735;SDS011;40632;51.442;11.936;2022-10-17T03:37:27;10.45;;;7.57;;
54735;SDS011;40632;51.442;11.936;2022-10-17T03:39:55;10.13;;;8.15;;
54735;SDS011;40632;51.442;11.936;2022-10-17T03:42:21;9.30;;;7.90;;
54735;SDS011;40632;51.442;11.936;2022-10-17T03:44:47;10.85;;;8.57;;
54735;SDS011;40632;51.442;11.936;2022-10-17T03:47:13;11.05;;;9.38;;
54735;SDS011;40632;51.442;11.936;2022-10-17T03:49:38;11.15;;;8.98;;
54735;SDS011;40632;51.442;11.936;2022-10-17T03:52:04;10.50;;;8.55;;
54735;SDS011;40632;51.442;11.936;2022-10-17T03:54:30;13.43;;;8.90;;
54735;SDS011;40632;51.442;11.936;2022-10-17T03:56:58;14.00;;;9.45;;
54735;SDS011;40632;51.442;11.936;2022-10-17T03:59:23;10.82;;;8.90;;
54735;SDS011;40632;51.442;11.936;2022-10-17T04:01:49;9.80;;;8.55;;
54735;SDS011;40632;51.442;11.936;2022-10-17T04:04:15;12.45;;;9.10;;
54735;SDS011;40632;51.442;11.936;2022-10-17T04:06:40;10.68;;;9.10;;
54735;SDS011;40632;51.442;11.936;2022-10-17T04:09:06;11.68;;;9.45;;
54735;SDS011;40632;51.442;11.936;2022-10-17T04:11:32;15.77;;;10.23;;
54735;SDS011;40632;51.442;11.936;2022-10-17T04:14:00;11.98;;;9.27;;
54735;SDS011;40632;51.442;11.936;2022-10-17T04:16:26;11.00;;;9.63;;
54735;SDS011;40632;51.442;11.936;2022-10-17T04:18:52;13.00;;;9.43;;
54735;SDS011;40632;51.442;11.936;2022-10-17T04:21:18;12.13;;;9.30;;
54735;SDS011;40632;51.442;11.936;2022-10-17T04:23:44;13.30;;;9.48;;
54735;SDS011;40632;51.442;11.936;2022-10-17T04:26:09;14.25;;;9.85;;
54735;SDS011;40632;51.442;11.936;2022-10-17T04:28:35;14.65;;;9.05;;
54735;SDS011;40632;51.442;11.936;2022-10-17T04:31:04;10.43;;;9.00;;
54735;SDS011;40632;51.442;11.936;2022-10-17T04:33:31;10.15;;;9.00;;
54735;SDS011;40632;51.442;11.936;2022-10-17T04:35:58;15.48;;;11.25;;
54735;SDS011;40632;51.442;11.936;2022-10-17T04:38:24;14.98;;;9.82;;
54735;SDS011;40632;51.442;11.936;2022-10-17T04:40:50;12.05;;;8.90;;
54735;SDS011;40632;51.442;11.936;2022-10-17T04:43:16;11.40;;;9.18;;
54735;SDS011;40632;51.442;11.936;2022-10-17T04:45:41;13.27;;;9.30;;
54735;SDS011;40632;51.442;11.936;2022-10-17T04:48:09;12.32;;;9.13;;
54735;SDS011;40632;51.442;11.936;2022-10-17T04:50:35;11.25;;;9.10;;
54735;SDS011;40632;51.442;11.936;2022-10-17T04:53:01;10.52;;;7.93;;
54735;SDS011;40632;51.442;11.936;2022-10-17T04:55:26;9.90;;;8.60;;
54735;SDS011;40632;51.442;11.936;2022-10-17T04:57:52;11.35;;;8.50;;
54735;SDS011;40632;51.442;11.936;2022-10-17T05:00:17;13.30;;;9.15;;
54735;SDS011;40632;51.442;11.936;2022-10-17T05:02:43;12.15;;;9.02;;
54735;SDS011;40632;51.442;11.936;2022-10-17T05:05:11;13.90;;;9.27;;
54735;SDS011;40632;51.442;11.936;2022-10-17T05:07:38;15.30;;;9.02;;
54735;SDS011;40632;51.442;11.936;2022-10-17T05:10:04;12.63;;;9.15;;
54735;SDS011;40632;51.442;11.936;2022-10-17T05:12:31;11.07;;;8.95;;
54735;SDS011;40632;51.442;11.936;2022-10-17T05:14:56;13.38;;;9.18;;
54735;SDS011;40632;51.442;11.936;2022-10-17T05:17:22;13.15;;;9.05;;
54735;SDS011;40632;51.442;11.936;2022-10-17T05:19:48;13.30;;;8.95;;
54735;SDS011;40632;51.442;11.936;2022-10-17T05:22:16;10.48;;;9.07;;
54735;SDS011;40632;51.442;11.936;2022-10-17T05:24:42;12.32;;;8.85;;
54735;SDS011;40632;51.442;11.936;2022-10-17T05:27:07;11.85;;;9.30;;
54735;SDS011;40632;51.442;11.936;2022-10-17T05:29:33;13.23;;;9.63;;
54735;SDS011;40632;51.442;11.936;2022-10-17T05:31:59;12.65;;;9.02;;
54735;SDS011;40632;51.442;11.936;2022-10-17T05:34:24;14.50;;;8.98;;
54735;SDS011;40632;51.442;11.936;2022-10-17T05:36:50;13.07;;;9.45;;
54735;SDS011;40632;51.442;11.936;2022-10-17T05:39:18;12.52;;;9.32;;
54735;SDS011;40632;51.442;11.936;2022-10-17T05:41:44;13.35;;;8.88;;
54735;SDS011;40632;51.442;11.936;2022-10-17T05:44:10;10.88;;;9.77;;
54735;SDS011;40632;51.442;11.936;2022-10-17T05:46:35;14.68;;;9.23;;
54735;SDS011;40632;51.442;11.936;2022-10-17T05:49:01;13.90;;;9.05;;
54735;SDS011;40632;51.442;11.936;2022-10-17T05:51:27;11.40;;;8.60;;
54735;SDS011;40632;51.442;11.936;2022-10-17T05:53:52;10.55;;;8.05;;
54735;SDS011;40632;51.442;11.936;2022-10-17T05:56:20;18.20;;;9.10;;
54735;SDS011;40632;51.442;11.936;2022-10-17T05:58:46;12.88;;;8.10;;
54735;SDS011;40632;51.442;11.936;2022-10-17T06:01:12;9.02;;;7.80;;
54735;SDS011;40632;51.442;11.936;2022-10-17T06:03:37;8.90;;;8.00;;
54735;SDS011;40632;51.442;11.936;2022-10-17T06:06:03;11.15;;;7.78;;
54735;SDS011;40632;51.442;11.936;2022-10-17T06:08:30;9.55;;;7.70;;
54735;SDS011;40632;51.442;11.936;2022-10-17T06:10:55;10.02;;;7.68;;
54735;SDS011;40632;51.442;11.936;2022-10-17T06:13:23;8.45;;;6.95;;
54735;SDS011;40632;51.442;11.936;2022-10-17T06:15:49;13.02;;;7.38;;
54735;SDS011;40632;51.442;11.936;2022-10-17T06:18:15;8.85;;;6.90;;
54735;SDS011;40632;51.442;11.936;2022-10-17T06:20:40;8.93;;;6.57;;
54735;SDS011;40632;51.442;11.936;2022-10-17T06:23:06;8.30;;;6.72;;
54735;SDS011;40632;51.442;11.936;2022-10-17T06:25:32;9.77;;;6.20;;
54735;SDS011;40632;51.442;11.936;2022-10-17T06:27:58;9.52;;;6.07;;
54735;SDS011;40632;51.442;11.936;2022-10-17T06:30:26;9.23;;;6.43;;
54735;SDS011;40632;51.442;11.936;2022-10-17T06:32:52;8.07;;;5.85;;
54735;SDS011;40632;51.442;11.936;2022-10-17T06:35:18;9.35;;;5.57;;
54735;SDS011;40632;51.442;11.936;2022-10-17T06:37:44;10.95;;;6.00;;
54735;SDS011;40632;51.442;11.936;2022-10-17T06:40:10;7.32;;;4.97;;
54735;SDS011;40632;51.442;11.936;2022-10-17T06:42:37;10.02;;;5.18;;
54735;SDS011;40632;51.442;11.936;2022-10-17T06:45:03;6.63;;;5.00;;
54735;SDS011;40632;51.442;11.936;2022-10-17T06:47:32;10.63;;;5.10;;
54735;SDS011;40632;51.442;11.936;2022-10-17T06:49:58;5.85;;;4.70;;
54735;SDS011;40632;51.442;11.936;2022-10-17T06:52:23;5.57;;;4.30;;
54735;SDS011;40632;51.442;11.936;2022-10-17T06:54:49;7.50;;;4.60;;
54735;SDS011;40632;51.442;11.936;2022-10-17T06:57:15;6.88;;;4.70;;
54735;SDS011;40632;51.442;11.936;2022-10-17T06:59:40;4.70;;;4.10;;
54735;SDS011;40632;51.442;11.936;2022-10-17T07:02:08;6.38;;;4.55;;
54735;SDS011;40632;51.442;11.936;2022-10-17T07:04:37;10.77;;;4.35;;
54735;SDS011;40632;51.442;11.936;2022-10-17T07:07:03;5.57;;;4.10;;
54735;SDS011;40632;51.442;11.936;2022-10-17T07:09:29;5.00;;;3.67;;
54735;SDS011;40632;51.442;11.936;2022-10-17T07:11:55;10.10;;;3.92;;
54735;SDS011;40632;51.442;11.936;2022-10-17T07:14:21;6.43;;;4.18;;
54735;SDS011;40632;51.442;11.936;2022-10-17T07:16:47;6.28;;;4.05;;
54735;SDS011;40632;51.442;11.936;2022-10-17T07:19:13;9.65;;;3.97;;
54735;SDS011;40632;51.442;11.936;2022-10-17T07:21:41;9.35;;;3.60;;
54735;SDS011;40632;51.442;11.936;2022-10-17T07:24:07;6.88;;;3.65;;
54735;SDS011;40632;51.442;11.936;2022-10-17T07:26:32;4.38;;;3.28;;
54735;SDS011;40632;51.442;11.936;2022-10-17T07:28:58;5.30;;;3.58;;
54735;SDS011;40632;51.442;11.936;2022-10-17T07:31:24;9.38;;;3.30;;
54735;SDS011;40632;51.442;11.936;2022-10-17T07:33:49;5.03;;;3.33;;
54735;SDS011;40632;51.442;11.936;2022-10-17T07:36:15;11.60;;;3.35;;
54735;SDS011;40632;51.442;11.936;2022-10-17T07:38:44;6.80;;;3.42;;
54735;SDS011;40632;51.442;11.936;2022-10-17T07:41:10;7.90;;;3.55;;
54735;SDS011;40632;51.442;11.936;2022-10-17T07:43:36;4.68;;;3.40;;
54735;SDS011;40632;51.442;11.936;2022-10-17T07:46:02;5.95;;;3.40;;
54735;SDS011;40632;51.442;11.936;2022-10-17T07:48:29;5.82;;;3.28;;
54735;SDS011;40632;51.442;11.936;2022-10-17T07:50:54;7.30;;;3.33;;
54735;SDS011;40632;51.442;11.936;2022-10-17T07:53:20;6.45;;;3.50;;
54735;SDS011;40632;51.442;11.936;2022-10-17T07:55:48;6.28;;;3.78;;
54735;SDS011;40632;51.442;11.936;2022-10-17T07:58:14;4.88;;;3.33;;
54735;SDS011;40632;51.442;11.936;2022-10-17T08:00:40;5.90;;;3.55;;
54735;SDS011;40632;51.442;11.936;2022-10-17T08:03:05;4.65;;;3.53;;
54735;SDS011;40632;51.442;11.936;2022-10-17T08:05:31;5.43;;;3.00;;
54735;SDS011;40632;51.442;11.936;2022-10-17T08:07:58;8.30;;;3.22;;
54735;SDS011;40632;51.442;11.936;2022-10-17T08:10:23;7.10;;;2.95;;
54735;SDS011;40632;51.442;11.936;2022-10-17T08:12:52;8.60;;;3.17;;
54735;SDS011;40632;51.442;11.936;2022-10-17T08:15:17;4.95;;;3.05;;
54735;SDS011;40632;51.442;11.936;2022-10-17T08:17:43;5.43;;;2.65;;
54735;SDS011;40632;51.442;11.936;2022-10-17T08:20:09;6.80;;;2.90;;
54735;SDS011;40632;51.442;11.936;2022-10-17T08:22:35;3.75;;;2.33;;
54735;SDS011;40632;51.442;11.936;2022-10-17T08:25:01;4.38;;;2.55;;
54735;SDS011;40632;51.442;11.936;2022-10-17T08:27:27;8.88;;;2.42;;
54735;SDS011;40632;51.442;11.936;2022-10-17T08:29:55;4.50;;;2.42;;
54735;SDS011;40632;51.442;11.936;2022-10-17T08:32:21;3.92;;;2.15;;
54735;SDS011;40632;51.442;11.936;2022-10-17T08:34:47;3.88;;;1.67;;
54735;SDS011;40632;51.442;11.936;2022-10-17T08:37:13;3.03;;;1.80;;
54735;SDS011;40632;51.442;11.936;2022-10-17T08:39:39;4.32;;;1.88;;
54735;SDS011;40632;51.442;11.936;2022-10-17T08:42:10;4.25;;;1.92;;
54735;SDS011;40632;51.442;11.936;2022-10-17T08:45:02;3.92;;;2.00;;
54735;SDS011;40632;51.442;11.936;2022-10-17T08:47:35;5.60;;;2.03;;
54735;SDS011;40632;51.442;11.936;2022-10-17T08:50:04;3.05;;;1.90;;
54735;SDS011;40632;51.442;11.936;2022-10-17T08:52:36;4.38;;;2.15;;
54735;SDS011;40632;51.442;11.936;2022-10-17T08:55:04;5.03;;;2.05;;
54735;SDS011;40632;51.442;11.936;2022-10-17T08:57:39;4.50;;;2.03;;
54735;SDS011;40632;51.442;11.936;2022-10-17T09:00:10;3.33;;;1.75;;
54735;SDS011;40632;51.442;11.936;2022-10-17T09:02:42;6.03;;;1.92;;
54735;SDS011;40632;51.442;11.936;2022-10-17T09:05:30;3.35;;;2.10;;
54735;SDS011;40632;51.442;11.936;2022-10-17T09:08:03;4.38;;;2.15;;
54735;SDS011;40632;51.442;11.936;2022-10-17T09:10:41;5.15;;;2.00;;
54735;SDS011;40632;51.442;11.936;2022-10-17T09:13:18;9.50;;;1.92;;
54735;SDS011;40632;51.442;11.936;2022-10-17T09:16:03;3.28;;;1.92;;
54735;SDS011;40632;51.442;11.936;2022-10-17T09:18:39;3.53;;;1.90;;
54735;SDS011;40632;51.442;11.936;2022-10-17T09:21:10;8.43;;;2.20;;
54735;SDS011;40632;51.442;11.936;2022-10-17T09:23:43;3.65;;;2.00;;
54735;SDS011;40632;51.442;11.936;2022-10-17T09:26:13;4.63;;;1.85;;
54735;SDS011;40632;51.442;11.936;2022-10-17T09:28:40;5.13;;;1.90;;
54735;SDS011;40632;51.442;11.936;2022-10-17T09:31:11;6.75;;;1.92;;
54735;SDS011;40632;51.442;11.936;2022-10-17T09:33:44;6.45;;;2.45;;
54735;SDS011;40632;51.442;11.936;2022-10-17T09:36:12;9.20;;;1.70;;
54735;SDS011;40632;51.442;11.936;2022-10-17T09:38:41;4.18;;;1.90;;
54735;SDS011;40632;51.442;11.936;2022-10-17T09:41:12;3.92;;;2.15;;
54735;SDS011;40632;51.442;11.936;2022-10-17T09:43:42;4.25;;;2.00;;
54735;SDS011;40632;51.442;11.936;2022-10-17T09:46:09;3.75;;;2.13;;
54735;SDS011;40632;51.442;11.936;2022-10-17T09:48:42;9.10;;;2.20;;
54735;SDS011;40632;51.442;11.936;2022-10-17T09:51:10;4.35;;;2.00;;
54735;SDS011;40632;51.442;11.936;2022-10-17T09:53:37;5.95;;;1.83;;
54735;SDS011;40632;51.442;11.936;2022-10-17T09:56:06;3.92;;;2.15;;
54735;SDS011;40632;51.442;11.936;2022-10-17T09:58:38;5.45;;;2.20;;
54735;SDS011;40632;51.442;11.936;2022-10-17T10:01:16;4.30;;;2.30;;
54735;SDS011;40632;51.442;11.936;2022-10-17T10:03:43;4.00;;;1.85;;
54735;SDS011;40632;51.442;11.936;2022-10-17T10:06:12;5.65;;;1.60;;
54735;SDS011;40632;51.442;11.936;2022-10-17T10:08:46;4.70;;;2.25;;
54735;SDS011;40632;51.442;11.936;2022-10-17T10:11:13;4.63;;;1.90;;
54735;SDS011;40632;51.442;11.936;2022-10-17T10:13:40;5.65;;;2.42;;
54735;SDS011;40632;51.442;11.936;2022-10-17T10:16:17;9.48;;;2.33;;
54735;SDS011;40632;51.442;11.936;2022-10-17T10:18:46;7.43;;;1.95;;
54735;SDS011;40632;51.442;11.936;2022-10-17T10:21:13;4.28;;;1.85;;
54735;SDS011;40632;51.442;11.936;2022-10-17T10:23:40;2.00;;;1.55;;
54735;SDS011;40632;51.442;11.936;2022-10-17T10:28:56;7.57;;;1.98;;
54735;SDS011;40632;51.442;11.936;2022-10-17T10:31:33;7.10;;;1.50;;
54735;SDS011;40632;51.442;11.936;2022-10-17T10:34:02;3.95;;;1.65;;
54735;SDS011;40632;51.442;11.936;2022-10-17T10:36:42;3.58;;;1.80;;
54735;SDS011;40632;51.442;11.936;2022-10-17T10:39:14;3.25;;;1.48;;
54735;SDS011;40632;51.442;11.936;2022-10-17T10:42:01;4.78;;;1.48;;
54735;SDS011;40632;51.442;11.936;2022-10-17T10:44:29;3.70;;;1.63;;
54735;SDS011;40632;51.442;11.936;2022-10-17T10:47:13;8.63;;;1.83;;
54735;SDS011;40632;51.442;11.936;2022-10-17T10:49:42;3.10;;;1.90;;
54735;SDS011;40632;51.442;11.936;2022-10-17T10:52:10;4.28;;;1.48;;
54735;SDS011;40632;51.442;11.936;2022-10-17T10:54:40;2.60;;;1.60;;
54735;SDS011;40632;51.442;11.936;2022-10-17T10:57:11;4.72;;;1.73;;
54735;SDS011;40632;51.442;11.936;2022-10-17T11:02:16;6.63;;;1.55;;
54735;SDS011;40632;51.442;11.936;2022-10-17T11:04:47;6.38;;;1.80;;
54735;SDS011;40632;51.442;11.936;2022-10-17T11:07:20;5.78;;;1.67;;
54735;SDS011;40632;51.442;11.936;2022-10-17T11:09:50;6.22;;;1.75;;
54735;SDS011;40632;51.442;11.936;2022-10-17T11:12:23;5.93;;;2.65;;
54735;SDS011;40632;51.442;11.936;2022-10-17T11:14:53;4.75;;;1.58;;
54735;SDS011;40632;51.442;11.936;2022-10-17T11:20:00;2.53;;;1.50;;
54735;SDS011;40632;51.442;11.936;2022-10-17T11:22:31;6.00;;;1.90;;
54735;SDS011;40632;51.442;11.936;2022-10-17T11:25:03;3.30;;;1.52;;
54735;SDS011;40632;51.442;11.936;2022-10-17T11:27:39;4.75;;;2.13;;
54735;SDS011;40632;51.442;11.936;2022-10-17T11:30:05;6.03;;;1.70;;
54735;SDS011;40632;51.442;11.936;2022-10-17T11:32:35;4.50;;;1.77;;
54735;SDS011;40632;51.442;11.936;2022-10-17T11:35:07;3.47;;;1.67;;
54735;SDS011;40632;51.442;11.936;2022-10-17T11:37:45;4.63;;;1.65;;
54735;SDS011;40632;51.442;11.936;2022-10-17T11:40:14;4.03;;;1.48;;
54735;SDS011;40632;51.442;11.936;2022-10-17T11:42:44;5.40;;;1.90;;
54735;SDS011;40632;51.442;11.936;2022-10-17T11:45:17;3.45;;;1.45;;
54735;SDS011;40632;51.442;11.936;2022-10-17T11:47:49;3.28;;;1.58;;
54735;SDS011;40632;51.442;11.936;2022-10-17T11:50:19;4.72;;;1.70;;
54735;SDS011;40632;51.442;11.936;2022-10-17T11:52:50;2.88;;;1.58;;
54735;SDS011;40632;51.442;11.936;2022-10-17T11:55:21;4.70;;;1.40;;
54735;SDS011;40632;51.442;11.936;2022-10-17T11:57:51;5.13;;;1.35;;
54735;SDS011;40632;51.442;11.936;2022-10-17T12:00:29;4.35;;;1.63;;
54735;SDS011;40632;51.442;11.936;2022-10-17T12:03:10;5.30;;;1.65;;
54735;SDS011;40632;51.442;11.936;2022-10-17T12:05:45;4.03;;;1.48;;
54735;SDS011;40632;51.442;11.936;2022-10-17T12:08:19;3.63;;;1.38;;
54735;SDS011;40632;51.442;11.936;2022-10-17T12:10:51;2.55;;;1.42;;
54735;SDS011;40632;51.442;11.936;2022-10-17T12:19:22;3.60;;;1.35;;
54735;SDS011;40632;51.442;11.936;2022-10-17T12:21:52;2.63;;;1.52;;
54735;SDS011;40632;51.442;11.936;2022-10-17T12:24:23;4.78;;;1.65;;
54735;SDS011;40632;51.442;11.936;2022-10-17T12:26:55;4.20;;;1.42;;
54735;SDS011;40632;51.442;11.936;2022-10-17T12:29:24;3.78;;;1.25;;
54735;SDS011;40632;51.442;11.936;2022-10-17T12:31:53;5.43;;;1.80;;
54735;SDS011;40632;51.442;11.936;2022-10-17T12:34:21;5.55;;;1.55;;
54735;SDS011;40632;51.442;11.936;2022-10-17T12:36:48;3.72;;;1.30;;
54735;SDS011;40632;51.442;11.936;2022-10-17T12:44:56;6.22;;;1.50;;
54735;SDS011;40632;51.442;11.936;2022-10-17T12:50:07;5.63;;;1.40;;
54735;SDS011;40632;51.442;11.936;2022-10-17T12:53:10;4.30;;;1.30;;
54735;SDS011;40632;51.442;11.936;2022-10-17T12:55:40;9.10;;;1.33;;
54735;SDS011;40632;51.442;11.936;2022-10-17T12:58:09;6.75;;;1.48;;
54735;SDS011;40632;51.442;11.936;2022-10-17T13:00:40;6.20;;;2.07;;
54735;SDS011;40632;51.442;11.936;2022-10-17T13:03:10;5.95;;;1.60;;
54735;SDS011;40632;51.442;11.936;2022-10-17T13:05:39;6.68;;;1.50;;
54735;SDS011;40632;51.442;11.936;2022-10-17T13:08:13;3.53;;;1.27;;
54735;SDS011;40632;51.442;11.936;2022-10-17T13:10:43;5.00;;;1.45;;
54735;SDS011;40632;51.442;11.936;2022-10-17T13:13:13;1.45;;;1.10;;
54735;SDS011;40632;51.442;11.936;2022-10-17T13:15:44;4.13;;;1.38;;
54735;SDS011;40632;51.442;11.936;2022-10-17T13:18:12;6.72;;;1.50;;
54735;SDS011;40632;51.442;11.936;2022-10-17T13:20:42;4.00;;;1.40;;
54735;SDS011;40632;51.442;11.936;2022-10-17T13:23:22;3.67;;;1.20;;
54735;SDS011;40632;51.442;11.936;2022-10-17T13:26:00;5.95;;;1.40;;
54735;SDS011;40632;51.442;11.936;2022-10-17T13:28:26;7.20;;;1.38;;
54735;SDS011;40632;51.442;11.936;2022-10-17T13:30:52;5.20;;;1.42;;
54735;SDS011;40632;51.442;11.936;2022-10-17T13:33:26;3.97;;;1.52;;
54735;SDS011;40632;51.442;11.936;2022-10-17T13:35:56;5.22;;;1.35;;
54735;SDS011;40632;51.442;11.936;2022-10-17T13:38:25;7.22;;;1.40;;
54735;SDS011;40632;51.442;11.936;2022-10-17T13:40:52;3.20;;;1.15;;
54735;SDS011;40632;51.442;11.936;2022-10-17T13:43:18;4.68;;;1.60;;
54735;SDS011;40632;51.442;11.936;2022-10-17T13:45:47;4.80;;;1.20;;
54735;SDS011;40632;51.442;11.936;2022-10-17T13:48:17;4.75;;;1.67;;
54735;SDS011;40632;51.442;11.936;2022-10-17T13:50:46;2.72;;;1.27;;
54735;SDS011;40632;51.442;11.936;2022-10-17T13:53:15;2.55;;;1.45;;
54735;SDS011;40632;51.442;11.936;2022-10-17T13:55:56;4.40;;;1.67;;
54735;SDS011;40632;51.442;11.936;2022-10-17T13:58:24;4.75;;;1.30;;
54735;SDS011;40632;51.442;11.936;2022-10-17T14:00:50;3.10;;;1.10;;
54735;SDS011;40632;51.442;11.936;2022-10-17T14:03:17;2.22;;;1.25;;
54735;SDS011;40632;51.442;11.936;2022-10-17T14:08:26;2.03;;;1.03;;
54735;SDS011;40632;51.442;11.936;2022-10-17T14:10:52;8.23;;;1.70;;
54735;SDS011;40632;51.442;11.936;2022-10-17T14:13:21;2.30;;;1.25;;
54735;SDS011;40632;51.442;11.936;2022-10-17T14:15:49;4.75;;;1.40;;
54735;SDS011;40632;51.442;11.936;2022-10-17T14:18:16;4.35;;;1.35;;
54735;SDS011;40632;51.442;11.936;2022-10-17T14:20:44;4.13;;;1.90;;
54735;SDS011;40632;51.442;11.936;2022-10-17T14:23:28;7.05;;;1.48;;
54735;SDS011;40632;51.442;11.936;2022-10-17T14:26:05;4.30;;;1.50;;
54735;SDS011;40632;51.442;11.936;2022-10-17T14:28:33;7.75;;;1.67;;
54735;SDS011;40632;51.442;11.936;2022-10-17T14:31:08;3.63;;;1.33;;
54735;SDS011;40632;51.442;11.936;2022-10-17T14:33:36;6.03;;;1.42;;
54735;SDS011;40632;51.442;11.936;2022-10-17T14:36:02;6.10;;;1.40;;
54735;SDS011;40632;51.442;11.936;2022-10-17T14:38:28;5.30;;;1.60;;
54735;SDS011;40632;51.442;11.936;2022-10-17T14:40:55;7.80;;;1.35;;
54735;SDS011;40632;51.442;11.936;2022-10-17T14:43:27;6.30;;;1.58;;
54735;SDS011;40632;51.442;11.936;2022-10-17T14:45:55;5.60;;;1.45;;
54735;SDS011;40632;51.442;11.936;2022-10-17T14:48:22;6.53;;;1.50;;
54735;SDS011;40632;51.442;11.936;2022-10-17T14:53:38;3.63;;;1.50;;
54735;SDS011;40632;51.442;11.936;2022-10-17T14:56:20;5.30;;;1.50;;
54735;SDS011;40632;51.442;11.936;2022-10-17T14:58:49;5.47;;;1.67;;
54735;SDS011;40632;51.442;11.936;2022-10-17T15:01:15;4.43;;;2.13;;
54735;SDS011;40632;51.442;11.936;2022-10-17T15:03:41;4.35;;;1.60;;
54735;SDS011;40632;51.442;11.936;2022-10-17T15:06:08;4.80;;;1.70;;
54735;SDS011;40632;51.442;11.936;2022-10-17T15:08:41;3.80;;;1.30;;
54735;SDS011;40632;51.442;11.936;2022-10-17T15:11:07;4.43;;;1.88;;
54735;SDS011;40632;51.442;11.936;2022-10-17T15:13:34;4.35;;;1.40;;
54735;SDS011;40632;51.442;11.936;2022-10-17T15:16:04;2.92;;;1.40;;
54735;SDS011;40632;51.442;11.936;2022-10-17T15:18:37;5.90;;;1.83;;